sensor_id;sensor_type;location;lat;lon;timestamp;pressure;altitude;pressure_sealevel;temperature;humidity
7836;BME280;3963;42.658;23.298;2023-01-15T00:01:28;58664.28;;;3.99;100.00
7836;BME280;3963;42.658;23.298;2023-01-15T00:03:57;58666.31;;;4.13;100.00
7836;BME280;3963;42.658;23.298;2023-01-15T00:06:25;58697.69;;;4.16;100.00
7836;BME280;3963;42.658;23.298;2023-01-15T00:08:53;58707.91;;;4.16;100.00
7836;BME280;3963;42.658;23.298;2023-01-15T00:11:20;58674.91;;;4.09;100.00
7836;BME280;3963;42.658;23.298;2023-01-15T00:13:48;58644.06;;;4.06;100.00
7836;BME280;3963;42.658;23.298;2023-01-15T00:16:16;58677.72;;;4.16;100.00
7836;BME280;3963;42.658;23.298;2023-01-15T00:18:49;58671.63;;;4.18;100.00
7836;BME280;3963;42.658;23.298;2023-01-15T00:21:16;58666.78;;;4.11;100.00
7836;BME280;3963;42.658;23.298;2023-01-15T00:23:43;58674.00;;;3.98;100.00
7836;BME280;3963;42.658;23.298;2023-01-15T00:26:31;58659.88;;;4.04;100.00
7836;BME280;3963;42.658;23.298;2023-01-15T00:29:15;58653.50;;;3.83;100.00
7836;BME280;3963;42.658;23.298;2023-01-15T00:31:49;58688.31;;;3.97;100.00
7836;BME280;3963;42.658;23.298;2023-01-15T00:34:17;58686.88;;;4.01;100.00
7836;BME280;3963;42.658;23.298;2023-01-15T00:36:44;58666.41;;;4.01;100.00
7836;BME280;3963;42.658;23.298;2023-01-15T00:39:10;58637.44;;;3.92;100.00
7836;BME280;3963;42.658;23.298;2023-01-15T00:41:39;58626.22;;;3.79;100.00
7836;BME280;3963;42.658;23.298;2023-01-15T00:44:06;58645.31;;;3.83;100.00
7836;BME280;3963;42.658;23.298;2023-01-15T00:46:33;58631.97;;;3.68;100.00
7836;BME280;3963;42.658;23.298;2023-01-15T00:49:00;58619.44;;;3.61;100.00
7836;BME280;3963;42.658;23.298;2023-01-15T00:51:27;58611.41;;;3.51;100.00
7836;BME280;3963;42.658;23.298;2023-01-15T00:53:53;58646.63;;;3.77;100.00
7836;BME280;3963;42.658;23.298;2023-01-15T00:56:20;58616.88;;;3.75;100.00
7836;BME280;3963;42.658;23.298;2023-01-15T00:58:49;58676.31;;;3.90;100.00
7836;BME280;3963;42.658;23.298;2023-01-15T01:01:15;58693.63;;;4.02;100.00
7836;BME280;3963;42.658;23.298;2023-01-15T01:03:42;58668.09;;;4.05;100.00
7836;BME280;3963;42.658;23.298;2023-01-15T01:06:13;58635.16;;;3.85;100.00
7836;BME280;3963;42.658;23.298;2023-01-15T01:08:40;58637.72;;;4.00;100.00
7836;BME280;3963;42.658;23.298;2023-01-15T01:11:08;58648.56;;;3.88;100.00
7836;BME280;3963;42.658;23.298;2023-01-15T01:13:36;58658.63;;;3.83;100.00
7836;BME280;3963;42.658;23.298;2023-01-15T01:16:26;58630.13;;;3.73;100.00
7836;BME280;3963;42.658;23.298;2023-01-15T01:18:55;58628.91;;;3.67;100.00
7836;BME280;3963;42.658;23.298;2023-01-15T01:21:23;58626.84;;;3.68;100.00
7836;BME280;3963;42.658;23.298;2023-01-15T01:23:50;58647.53;;;3.87;100.00
7836;BME280;3963;42.658;23.298;2023-01-15T01:26:16;58654.75;;;3.89;100.00
7836;BME280;3963;42.658;23.298;2023-01-15T01:28:47;58666.50;;;4.03;100.00
7836;BME280;3963;42.658;23.298;2023-01-15T01:31:16;58680.53;;;4.09;100.00
7836;BME280;3963;42.658;23.298;2023-01-15T01:33:43;58663.22;;;4.12;100.00
7836;BME280;3963;42.658;23.298;2023-01-15T01:36:10;58642.81;;;3.85;100.00
7836;BME280;3963;42.658;23.298;2023-01-15T01:38:36;58625.72;;;3.79;100.00
7836;BME280;3963;42.658;23.298;2023-01-15T01:41:04;58644.25;;;3.67;100.00
7836;BME280;3963;42.658;23.298;2023-01-15T01:43:30;58650.88;;;3.81;100.00
7836;BME280;3963;42.658;23.298;2023-01-15T01:45:57;58641.50;;;3.91;100.00
7836;BME280;3963;42.658;23.298;2023-01-15T01:48:28;58643.28;;;3.98;100.00
7836;BME280;3963;42.658;23.298;2023-01-15T01:50:59;58623.59;;;3.91;100.00
7836;BME280;3963;42.658;23.298;2023-01-15T01:53:31;58680.28;;;4.16;100.00
7836;BME280;3963;42.658;23.298;2023-01-15T01:55:58;58676.13;;;4.15;100.00
7836;BME280;3963;42.658;23.298;2023-01-15T01:58:28;58686.09;;;4.07;100.00
7836;BME280;3963;42.658;23.298;2023-01-15T02:00:56;58660.94;;;4.05;100.00
7836;BME280;3963;42.658;23.298;2023-01-15T02:03:31;58653.19;;;4.03;100.00
7836;BME280;3963;42.658;23.298;2023-01-15T02:06:03;58671.88;;;4.11;100.00
7836;BME280;3963;42.658;23.298;2023-01-15T02:08:33;58634.19;;;4.16;100.00
7836;BME280;3963;42.658;23.298;2023-01-15T02:11:04;58661.38;;;4.03;100.00
7836;BME280;3963;42.658;23.298;2023-01-15T02:13:34;58628.97;;;3.99;100.00
7836;BME280;3963;42.658;23.298;2023-01-15T02:16:07;58670.47;;;4.00;100.00
7836;BME280;3963;42.658;23.298;2023-01-15T02:18:41;58628.63;;;3.89;100.00
7836;BME280;3963;42.658;23.298;2023-01-15T02:21:14;58663.41;;;3.88;100.00
7836;BME280;3963;42.658;23.298;2023-01-15T02:23:56;58659.25;;;3.86;100.00
7836;BME280;3963;42.658;23.298;2023-01-15T02:29:35;58652.81;;;3.92;100.00
7836;BME280;3963;42.658;23.298;2023-01-15T02:32:08;58634.28;;;3.89;100.00
7836;BME280;3963;42.658;23.298;2023-01-15T02:34:43;58598.06;;;3.79;100.00
7836;BME280;3963;42.658;23.298;2023-01-15T02:37:14;58697.31;;;3.91;100.00
7836;BME280;3963;42.658;23.298;2023-01-15T02:39:44;58677.00;;;3.96;100.00
7836;BME280;3963;42.658;23.298;2023-01-15T02:42:13;58657.13;;;3.84;100.00
7836;BME280;3963;42.658;23.298;2023-01-15T02:44:47;58688.13;;;4.07;100.00
7836;BME280;3963;42.658;23.298;2023-01-15T02:47:16;58686.09;;;3.92;100.00
7836;BME280;3963;42.658;23.298;2023-01-15T02:49:46;58632.88;;;3.93;100.00
7836;BME280;3963;42.658;23.298;2023-01-15T02:52:17;58650.16;;;4.05;100.00
7836;BME280;3963;42.658;23.298;2023-01-15T02:54:49;58677.00;;;4.11;100.00
7836;BME280;3963;42.658;23.298;2023-01-15T02:57:17;58689.38;;;4.13;100.00
7836;BME280;3963;42.658;23.298;2023-01-15T02:59:49;58677.72;;;4.16;100.00
7836;BME280;3963;42.658;23.298;2023-01-15T03:02:19;58695.19;;;4.18;100.00
7836;BME280;3963;42.658;23.298;2023-01-15T03:04:52;58702.19;;;4.27;100.00
7836;BME280;3963;42.658;23.298;2023-01-15T03:07:24;58680.28;;;4.16;100.00
7836;BME280;3963;42.658;23.298;2023-01-15T03:09:55;58655.13;;;4.00;100.00
7836;BME280;3963;42.658;23.298;2023-01-15T03:12:25;58656.06;;;3.98;100.00
7836;BME280;3963;42.658;23.298;2023-01-15T03:15:02;58642.75;;;3.98;100.00
7836;BME280;3963;42.658;23.298;2023-01-15T03:17:36;58658.28;;;4.03;100.00
7836;BME280;3963;42.658;23.298;2023-01-15T03:20:08;58672.75;;;4.07;100.00
7836;BME280;3963;42.658;23.298;2023-01-15T03:22:39;58652.72;;;4.05;100.00
7836;BME280;3963;42.658;23.298;2023-01-15T03:25:12;58659.16;;;3.99;100.00
7836;BME280;3963;42.658;23.298;2023-01-15T03:27:41;58662.44;;;4.19;100.00
7836;BME280;3963;42.658;23.298;2023-01-15T03:30:14;58667.91;;;4.29;100.00
7836;BME280;3963;42.658;23.298;2023-01-15T03:32:41;58696.97;;;4.25;100.00
7836;BME280;3963;42.658;23.298;2023-01-15T03:35:41;58692.38;;;4.25;100.00
7836;BME280;3963;42.658;23.298;2023-01-15T03:38:10;58737.09;;;4.29;100.00
7836;BME280;3963;42.658;23.298;2023-01-15T03:40:44;58703.00;;;4.35;100.00
7836;BME280;3963;42.658;23.298;2023-01-15T03:43:14;58701.75;;;4.44;100.00
7836;BME280;3963;42.658;23.298;2023-01-15T03:46:04;58738.34;;;4.50;100.00
7836;BME280;3963;42.658;23.298;2023-01-15T03:48:35;58715.88;;;4.53;100.00
7836;BME280;3963;42.658;23.298;2023-01-15T03:51:12;58746.97;;;4.48;100.00
7836;BME280;3963;42.658;23.298;2023-01-15T03:53:44;58756.53;;;4.57;100.00
7836;BME280;3963;42.658;23.298;2023-01-15T03:56:15;58734.16;;;4.48;100.00
7836;BME280;3963;42.658;23.298;2023-01-15T03:58:46;58750.28;;;4.54;100.00
7836;BME280;3963;42.658;23.298;2023-01-15T04:01:19;58721.19;;;4.43;100.00
7836;BME280;3963;42.658;23.298;2023-01-15T04:03:49;58694.41;;;4.25;100.00
7836;BME280;3963;42.658;23.298;2023-01-15T04:06:17;58678.41;;;4.22;100.00
7836;BME280;3963;42.658;23.298;2023-01-15T04:08:45;58702.72;;;4.28;100.00
7836;BME280;3963;42.658;23.298;2023-01-15T04:11:21;58698.75;;;4.31;100.00
7836;BME280;3963;42.658;23.298;2023-01-15T04:13:48;58715.00;;;4.27;100.00
7836;BME280;3963;42.658;23.298;2023-01-15T04:16:23;58700.69;;;4.28;100.00
7836;BME280;3963;42.658;23.298;2023-01-15T04:18:50;58695.41;;;4.23;100.00
7836;BME280;3963;42.658;23.298;2023-01-15T04:21:17;58655.13;;;4.14;100.00
7836;BME280;3963;42.658;23.298;2023-01-15T04:23:44;58665.78;;;4.12;100.00
7836;BME280;3963;42.658;23.298;2023-01-15T04:26:12;58679.50;;;4.23;100.00
7836;BME280;3963;42.658;23.298;2023-01-15T04:28:39;58702.53;;;4.23;100.00
7836;BME280;3963;42.658;23.298;2023-01-15T04:31:06;58690.59;;;4.33;100.00
7836;BME280;3963;42.658;23.298;2023-01-15T04:33:34;58731.59;;;4.33;100.00
7836;BME280;3963;42.658;23.298;2023-01-15T04:36:02;58680.28;;;4.31;100.00
7836;BME280;3963;42.658;23.298;2023-01-15T04:38:29;58686.81;;;4.27;100.00
7836;BME280;3963;42.658;23.298;2023-01-15T04:40:59;58668.00;;;4.17;100.00
7836;BME280;3963;42.658;23.298;2023-01-15T04:43:43;58692.81;;;4.09;100.00
7836;BME280;3963;42.658;23.298;2023-01-15T04:46:27;58674.63;;;4.01;100.00
7836;BME280;3963;42.658;23.298;2023-01-15T04:48:55;58679.81;;;4.04;100.00
7836;BME280;3963;42.658;23.298;2023-01-15T04:51:22;58688.13;;;4.07;100.00
7836;BME280;3963;42.658;23.298;2023-01-15T04:53:49;58654.94;;;3.95;100.00
7836;BME280;3963;42.658;23.298;2023-01-15T04:56:15;58658.28;;;4.03;100.00
7836;BME280;3963;42.658;23.298;2023-01-15T04:58:43;58675.06;;;3.99;100.00
7836;BME280;3963;42.658;23.298;2023-01-15T05:01:10;58633.66;;;3.86;100.00
7836;BME280;3963;42.658;23.298;2023-01-15T05:03:37;58618.56;;;3.79;100.00
7836;BME280;3963;42.658;23.298;2023-01-15T05:06:06;58627.56;;;3.73;100.00
7836;BME280;3963;42.658;23.298;2023-01-15T05:08:34;58600.03;;;3.62;100.00
7836;BME280;3963;42.658;23.298;2023-01-15T05:11:02;58612.38;;;3.49;100.00
7836;BME280;3963;42.658;23.298;2023-01-15T05:13:29;58566.06;;;3.42;100.00
7836;BME280;3963;42.658;23.298;2023-01-15T05:16:07;58582.56;;;3.30;100.00
7836;BME280;3963;42.658;23.298;2023-01-15T05:18:34;58560.94;;;3.27;100.00
7836;BME280;3963;42.658;23.298;2023-01-15T05:21:02;58549.31;;;3.16;100.00
7836;BME280;3963;42.658;23.298;2023-01-15T05:23:31;58572.94;;;3.19;100.00
7836;BME280;3963;42.658;23.298;2023-01-15T05:26:02;58563.75;;;3.20;100.00
7836;BME280;3963;42.658;23.298;2023-01-15T05:28:29;58512.09;;;3.05;100.00
7836;BME280;3963;42.658;23.298;2023-01-15T05:30:55;58539.00;;;3.13;100.00
7836;BME280;3963;42.658;23.298;2023-01-15T05:33:22;58542.97;;;3.10;100.00
7836;BME280;3963;42.658;23.298;2023-01-15T05:35:49;58553.25;;;2.98;100.00
7836;BME280;3963;42.658;23.298;2023-01-15T05:38:16;58532.81;;;2.98;100.00
7836;BME280;3963;42.658;23.298;2023-01-15T05:40:44;58531.75;;;2.97;100.00
7836;BME280;3963;42.658;23.298;2023-01-15T05:43:11;58541.00;;;2.98;100.00
7836;BME280;3963;42.658;23.298;2023-01-15T05:45:37;58523.63;;;2.99;100.00
7836;BME280;3963;42.658;23.298;2023-01-15T05:48:04;58506.56;;;2.92;100.00
7836;BME280;3963;42.658;23.298;2023-01-15T05:50:31;58552.91;;;2.88;100.00
7836;BME280;3963;42.658;23.298;2023-01-15T05:52:58;58540.56;;;2.86;100.00
7836;BME280;3963;42.658;23.298;2023-01-15T05:55:25;58502.94;;;2.76;100.00
7836;BME280;3963;42.658;23.298;2023-01-15T05:57:53;58466.19;;;2.78;100.00
7836;BME280;3963;42.658;23.298;2023-01-15T06:00:21;58496.50;;;2.83;100.00
7836;BME280;3963;42.658;23.298;2023-01-15T06:02:48;58542.06;;;2.85;100.00
7836;BME280;3963;42.658;23.298;2023-01-15T06:05:16;58494.91;;;2.81;100.00
7836;BME280;3963;42.658;23.298;2023-01-15T06:07:46;58494.03;;;2.85;100.00
7836;BME280;3963;42.658;23.298;2023-01-15T06:10:14;58519.50;;;2.83;100.00
7836;BME280;3963;42.658;23.298;2023-01-15T06:12:41;58517.66;;;2.88;100.00
7836;BME280;3963;42.658;23.298;2023-01-15T06:15:11;58535.63;;;2.91;100.00
7836;BME280;3963;42.658;23.298;2023-01-15T06:17:37;58509.19;;;2.80;100.00
7836;BME280;3963;42.658;23.298;2023-01-15T06:20:05;58490.16;;;2.76;100.00
7836;BME280;3963;42.658;23.298;2023-01-15T06:22:32;58511.66;;;2.77;100.00
7836;BME280;3963;42.658;23.298;2023-01-15T06:24:59;58510.50;;;2.89;100.00
7836;BME280;3963;42.658;23.298;2023-01-15T06:27:27;58529.09;;;2.94;100.00
7836;BME280;3963;42.658;23.298;2023-01-15T06:29:54;58474.19;;;2.73;100.00
7836;BME280;3963;42.658;23.298;2023-01-15T06:32:25;58524.16;;;2.85;100.00
7836;BME280;3963;42.658;23.298;2023-01-15T06:34:51;58514.84;;;2.95;100.00
7836;BME280;3963;42.658;23.298;2023-01-15T06:37:18;58502.94;;;3.06;100.00
7836;BME280;3963;42.658;23.298;2023-01-15T06:39:45;58568.69;;;3.15;100.00
7836;BME280;3963;42.658;23.298;2023-01-15T06:42:12;58590.31;;;3.18;100.00
7836;BME280;3963;42.658;23.298;2023-01-15T06:44:58;58555.22;;;3.24;100.00
7836;BME280;3963;42.658;23.298;2023-01-15T06:47:43;58538.63;;;3.18;100.00
7836;BME280;3963;42.658;23.298;2023-01-15T06:50:11;58540.75;;;3.20;100.00
7836;BME280;3963;42.658;23.298;2023-01-15T06:52:38;58576.03;;;3.34;100.00
7836;BME280;3963;42.658;23.298;2023-01-15T06:55:06;58580.53;;;3.31;100.00
7836;BME280;3963;42.658;23.298;2023-01-15T06:57:33;58597.13;;;3.37;100.00
7836;BME280;3963;42.658;23.298;2023-01-15T07:00:00;58593.75;;;3.44;100.00
7836;BME280;3963;42.658;23.298;2023-01-15T07:02:26;58581.69;;;3.49;100.00
7836;BME280;3963;42.658;23.298;2023-01-15T07:04:55;58586.59;;;3.59;100.00
7836;BME280;3963;42.658;23.298;2023-01-15T07:07:22;58589.16;;;3.59;100.00
7836;BME280;3963;42.658;23.298;2023-01-15T07:09:49;58623.59;;;3.62;100.00
7836;BME280;3963;42.658;23.298;2023-01-15T07:12:16;58639.22;;;3.70;100.00
7836;BME280;3963;42.658;23.298;2023-01-15T07:14:43;58622.78;;;3.69;100.00
7836;BME280;3963;42.658;23.298;2023-01-15T07:17:10;58593.16;;;3.70;100.00
7836;BME280;3963;42.658;23.298;2023-01-15T07:19:37;58652.63;;;3.87;100.00
7836;BME280;3963;42.658;23.298;2023-01-15T07:22:05;58696.34;;;3.92;100.00
7836;BME280;3963;42.658;23.298;2023-01-15T07:24:32;58595.34;;;3.74;100.00
7836;BME280;3963;42.658;23.298;2023-01-15T07:26:59;58572.41;;;3.62;100.00
7836;BME280;3963;42.658;23.298;2023-01-15T07:29:26;58630.03;;;3.71;100.00
7836;BME280;3963;42.658;23.298;2023-01-15T07:31:53;58624.66;;;3.63;100.00
7836;BME280;3963;42.658;23.298;2023-01-15T07:34:20;58581.06;;;3.75;100.00
7836;BME280;3963;42.658;23.298;2023-01-15T07:36:47;58652.28;;;3.92;100.00
7836;BME280;3963;42.658;23.298;2023-01-15T07:39:15;58637.97;;;3.93;100.00
7836;BME280;3963;42.658;23.298;2023-01-15T07:41:42;58627.13;;;3.75;100.00
7836;BME280;3963;42.658;23.298;2023-01-15T07:44:27;58664.47;;;4.04;100.00
7836;BME280;3963;42.658;23.298;2023-01-15T07:47:16;58718.00;;;4.11;100.00
7836;BME280;3963;42.658;23.298;2023-01-15T07:50:02;58651.03;;;4.15;100.00
7836;BME280;3963;42.658;23.298;2023-01-15T07:52:29;58639.31;;;4.02;100.00
7836;BME280;3963;42.658;23.298;2023-01-15T07:54:57;58646.63;;;3.91;100.00
7836;BME280;3963;42.658;23.298;2023-01-15T07:57:25;58621.91;;;3.87;100.00
7836;BME280;3963;42.658;23.298;2023-01-15T07:59:52;58605.66;;;3.62;100.00
7836;BME280;3963;42.658;23.298;2023-01-15T08:02:19;58631.19;;;3.60;100.00
7836;BME280;3963;42.658;23.298;2023-01-15T08:04:46;58525.41;;;3.49;100.00
7836;BME280;3963;42.658;23.298;2023-01-15T08:07:13;58639.94;;;4.05;100.00
7836;BME280;3963;42.658;23.298;2023-01-15T08:09:40;58665.91;;;4.15;100.00
7836;BME280;3963;42.658;23.298;2023-01-15T08:12:10;58657.84;;;4.05;100.00
7836;BME280;3963;42.658;23.298;2023-01-15T08:14:55;58673.56;;;4.15;100.00
7836;BME280;3963;42.658;23.298;2023-01-15T08:17:41;58688.03;;;4.48;100.00
7836;BME280;3963;42.658;23.298;2023-01-15T08:20:11;58748.94;;;4.60;100.00
7836;BME280;3963;42.658;23.298;2023-01-15T08:22:39;58705.81;;;4.58;100.00
7836;BME280;3963;42.658;23.298;2023-01-15T08:25:08;58710.22;;;4.52;100.00
7836;BME280;3963;42.658;23.298;2023-01-15T08:27:37;58697.06;;;4.42;100.00
7836;BME280;3963;42.658;23.298;2023-01-15T08:30:07;58710.06;;;4.47;100.00
7836;BME280;3963;42.658;23.298;2023-01-15T08:32:35;58716.97;;;4.39;100.00
7836;BME280;3963;42.658;23.298;2023-01-15T08:35:03;58742.75;;;4.73;100.00
7836;BME280;3963;42.658;23.298;2023-01-15T08:37:29;58778.22;;;4.90;100.00
7836;BME280;3963;42.658;23.298;2023-01-15T08:39:56;58764.88;;;5.04;100.00
7836;BME280;3963;42.658;23.298;2023-01-15T08:42:23;58790.84;;;4.99;100.00
7836;BME280;3963;42.658;23.298;2023-01-15T08:44:52;58788.13;;;5.09;100.00
7836;BME280;3963;42.658;23.298;2023-01-15T08:47:18;58793.63;;;5.19;100.00
7836;BME280;3963;42.658;23.298;2023-01-15T08:49:46;58805.81;;;5.31;100.00
7836;BME280;3963;42.658;23.298;2023-01-15T08:52:13;58836.00;;;5.42;100.00
7836;BME280;3963;42.658;23.298;2023-01-15T08:54:40;58850.06;;;5.48;100.00
7836;BME280;3963;42.658;23.298;2023-01-15T08:57:09;58854.31;;;5.52;100.00
7836;BME280;3963;42.658;23.298;2023-01-15T08:59:36;58817.75;;;5.35;100.00
7836;BME280;3963;42.658;23.298;2023-01-15T09:02:05;58803.06;;;5.40;100.00
7836;BME280;3963;42.658;23.298;2023-01-15T09:04:32;58836.06;;;5.45;100.00
7836;BME280;3963;42.658;23.298;2023-01-15T09:06:59;58874.50;;;5.57;100.00
7836;BME280;3963;42.658;23.298;2023-01-15T09:09:25;58880.16;;;5.72;100.00
7836;BME280;3963;42.658;23.298;2023-01-15T09:11:52;58863.88;;;5.62;100.00
7836;BME280;3963;42.658;23.298;2023-01-15T09:14:20;58903.44;;;5.77;100.00
7836;BME280;3963;42.658;23.298;2023-01-15T09:16:47;58873.88;;;5.83;100.00
7836;BME280;3963;42.658;23.298;2023-01-15T09:19:15;58854.66;;;5.63;100.00
7836;BME280;3963;42.658;23.298;2023-01-15T09:21:41;58855.28;;;5.66;100.00
7836;BME280;3963;42.658;23.298;2023-01-15T09:24:08;58886.38;;;5.73;100.00
7836;BME280;3963;42.658;23.298;2023-01-15T09:26:37;58885.91;;;5.75;100.00
7836;BME280;3963;42.658;23.298;2023-01-15T09:29:05;58871.66;;;5.79;100.00
7836;BME280;3963;42.658;23.298;2023-01-15T09:31:32;58890.44;;;6.01;100.00
7836;BME280;3963;42.658;23.298;2023-01-15T09:33:58;58919.69;;;6.15;100.00
7836;BME280;3963;42.658;23.298;2023-01-15T09:36:29;58907.81;;;6.13;100.00
7836;BME280;3963;42.658;23.298;2023-01-15T09:38:56;58930.94;;;6.13;100.00
7836;BME280;3963;42.658;23.298;2023-01-15T09:41:25;58952.13;;;6.31;100.00
7836;BME280;3963;42.658;23.298;2023-01-15T09:44:19;58929.44;;;6.29;100.00
7836;BME280;3963;42.658;23.298;2023-01-15T09:47:00;59024.13;;;6.75;100.00
7836;BME280;3963;42.658;23.298;2023-01-15T09:49:39;59007.25;;;6.78;100.00
7836;BME280;3963;42.658;23.298;2023-01-15T09:52:12;59042.66;;;6.75;100.00
7836;BME280;3963;42.658;23.298;2023-01-15T09:54:49;59023.16;;;6.76;100.00
7836;BME280;3963;42.658;23.298;2023-01-15T09:57:18;59013.56;;;6.82;100.00
7836;BME280;3963;42.658;23.298;2023-01-15T09:59:48;58983.50;;;6.75;100.00
7836;BME280;3963;42.658;23.298;2023-01-15T10:02:21;59035.47;;;6.76;100.00
7836;BME280;3963;42.658;23.298;2023-01-15T10:04:51;58977.72;;;6.57;100.00
7836;BME280;3963;42.658;23.298;2023-01-15T10:07:27;58967.97;;;6.43;100.00
7836;BME280;3963;42.658;23.298;2023-01-15T10:09:58;58981.03;;;6.63;100.00
7836;BME280;3963;42.658;23.298;2023-01-15T10:12:29;58995.28;;;6.74;100.00
7836;BME280;3963;42.658;23.298;2023-01-15T10:15:13;59037.97;;;6.88;100.00
7836;BME280;3963;42.658;23.298;2023-01-15T10:17:44;59052.06;;;7.08;100.00
7836;BME280;3963;42.658;23.298;2023-01-15T10:20:13;59047.28;;;7.04;100.00
7836;BME280;3963;42.658;23.298;2023-01-15T10:23:04;59063.59;;;7.29;100.00
7836;BME280;3963;42.658;23.298;2023-01-15T10:25:41;59087.50;;;7.49;100.00
7836;BME280;3963;42.658;23.298;2023-01-15T10:28:17;59125.94;;;7.73;100.00
7836;BME280;3963;42.658;23.298;2023-01-15T10:30:49;59165.91;;;8.11;100.00
7836;BME280;3963;42.658;23.298;2023-01-15T10:33:34;59225.84;;;8.58;100.00
7836;BME280;3963;42.658;23.298;2023-01-15T10:36:06;59242.94;;;8.60;100.00
7836;BME280;3963;42.658;23.298;2023-01-15T10:38:42;59228.16;;;8.51;100.00
7836;BME280;3963;42.658;23.298;2023-01-15T10:41:32;59295.25;;;8.80;100.00
7836;BME280;3963;42.658;23.298;2023-01-15T10:44:08;59275.56;;;9.08;100.00
7836;BME280;3963;42.658;23.298;2023-01-15T10:46:38;59360.97;;;9.27;100.00
7836;BME280;3963;42.658;23.298;2023-01-15T10:49:12;59372.53;;;9.48;100.00
7836;BME280;3963;42.658;23.298;2023-01-15T10:51:43;59355.94;;;9.62;100.00
7836;BME280;3963;42.658;23.298;2023-01-15T10:54:17;59387.75;;;9.84;100.00
7836;BME280;3963;42.658;23.298;2023-01-15T10:56:50;59377.88;;;9.68;100.00
7836;BME280;3963;42.658;23.298;2023-01-15T10:59:26;59476.28;;;10.46;100.00
7836;BME280;3963;42.658;23.298;2023-01-15T11:02:00;59446.16;;;10.27;99.92
7836;BME280;3963;42.658;23.298;2023-01-15T11:04:30;59451.97;;;10.16;100.00
7836;BME280;3963;42.658;23.298;2023-01-15T11:06:57;59403.97;;;9.90;100.00
7836;BME280;3963;42.658;23.298;2023-01-15T11:09:27;59420.47;;;9.88;100.00
7836;BME280;3963;42.658;23.298;2023-01-15T11:12:07;59408.28;;;9.79;100.00
7836;BME280;3963;42.658;23.298;2023-01-15T11:14:56;59357.00;;;9.77;100.00
7836;BME280;3963;42.658;23.298;2023-01-15T11:17:42;59376.19;;;9.49;100.00
7836;BME280;3963;42.658;23.298;2023-01-15T11:20:29;59393.28;;;9.80;100.00
7836;BME280;3963;42.658;23.298;2023-01-15T11:23:05;59450.53;;;10.05;100.00
7836;BME280;3963;42.658;23.298;2023-01-15T11:25:35;59496.13;;;10.21;100.00
7836;BME280;3963;42.658;23.298;2023-01-15T11:28:05;59440.63;;;9.88;100.00
7836;BME280;3963;42.658;23.298;2023-01-15T11:30:34;59439.56;;;9.87;100.00
7836;BME280;3963;42.658;23.298;2023-01-15T11:33:04;59409.41;;;9.97;100.00
7836;BME280;3963;42.658;23.298;2023-01-15T11:35:33;59425.28;;;9.78;100.00
7836;BME280;3963;42.658;23.298;2023-01-15T11:38:01;59315.97;;;8.97;100.00
7836;BME280;3963;42.658;23.298;2023-01-15T11:40:29;59273.72;;;8.84;100.00
7836;BME280;3963;42.658;23.298;2023-01-15T11:42:57;59316.78;;;9.05;100.00
7836;BME280;3963;42.658;23.298;2023-01-15T11:45:49;59337.00;;;9.07;100.00
7836;BME280;3963;42.658;23.298;2023-01-15T11:48:42;59302.63;;;8.70;100.00
7836;BME280;3963;42.658;23.298;2023-01-15T11:51:27;59306.72;;;9.13;100.00
7836;BME280;3963;42.658;23.298;2023-01-15T11:53:59;59308.69;;;9.10;100.00
7836;BME280;3963;42.658;23.298;2023-01-15T11:56:29;59363.44;;;9.10;100.00
7836;BME280;3963;42.658;23.298;2023-01-15T11:59:01;59319.47;;;9.22;100.00
7836;BME280;3963;42.658;23.298;2023-01-15T12:01:32;59328.00;;;9.01;100.00
7836;BME280;3963;42.658;23.298;2023-01-15T12:04:00;59336.19;;;8.99;100.00
7836;BME280;3963;42.658;23.298;2023-01-15T12:06:29;59319.81;;;8.88;100.00
7836;BME280;3963;42.658;23.298;2023-01-15T12:09:02;59305.75;;;9.00;100.00
7836;BME280;3963;42.658;23.298;2023-01-15T12:11:56;59242.72;;;8.69;100.00
7836;BME280;3963;42.658;23.298;2023-01-15T12:14:40;59260.38;;;8.57;100.00
7836;BME280;3963;42.658;23.298;2023-01-15T12:17:19;59234.75;;;8.32;100.00
7836;BME280;3963;42.658;23.298;2023-01-15T12:19:58;59238.28;;;8.31;100.00
7836;BME280;3963;42.658;23.298;2023-01-15T12:22:37;59176.22;;;7.97;100.00
7836;BME280;3963;42.658;23.298;2023-01-15T12:25:23;59172.66;;;7.84;100.00
7836;BME280;3963;42.658;23.298;2023-01-15T12:27:56;59142.91;;;7.72;100.00
7836;BME280;3963;42.658;23.298;2023-01-15T12:30:31;59143.25;;;7.53;100.00
7836;BME280;3963;42.658;23.298;2023-01-15T12:33:12;59114.03;;;7.43;100.00
7836;BME280;3963;42.658;23.298;2023-01-15T12:35:43;59077.28;;;7.22;100.00
7836;BME280;3963;42.658;23.298;2023-01-15T12:38:17;59077.25;;;7.08;100.00
7836;BME280;3963;42.658;23.298;2023-01-15T12:40:48;59084.91;;;7.05;100.00
7836;BME280;3963;42.658;23.298;2023-01-15T12:43:22;59045.13;;;7.02;100.00
7836;BME280;3963;42.658;23.298;2023-01-15T12:46:14;59026.88;;;6.94;100.00
7836;BME280;3963;42.658;23.298;2023-01-15T12:48:46;59028.09;;;7.00;100.00
7836;BME280;3963;42.658;23.298;2023-01-15T12:51:21;59068.22;;;6.99;100.00
7836;BME280;3963;42.658;23.298;2023-01-15T12:53:57;59023.75;;;6.79;100.00
7836;BME280;3963;42.658;23.298;2023-01-15T12:56:29;59030.94;;;6.93;100.00
7836;BME280;3963;42.658;23.298;2023-01-15T12:59:04;59054.38;;;6.86;100.00
7836;BME280;3963;42.658;23.298;2023-01-15T13:01:40;59051.97;;;6.91;100.00
7836;BME280;3963;42.658;23.298;2023-01-15T13:04:15;58972.78;;;6.62;100.00
7836;BME280;3963;42.658;23.298;2023-01-15T13:06:46;59033.19;;;6.83;100.00
7836;BME280;3963;42.658;23.298;2023-01-15T13:09:22;59076.75;;;6.93;100.00
7836;BME280;3963;42.658;23.298;2023-01-15T13:11:51;59031.84;;;6.89;100.00
7836;BME280;3963;42.658;23.298;2023-01-15T13:14:19;59041.59;;;6.89;100.00
7836;BME280;3963;42.658;23.298;2023-01-15T13:16:52;59024.03;;;6.87;100.00
7836;BME280;3963;42.658;23.298;2023-01-15T13:19:36;59047.91;;;6.92;100.00
7836;BME280;3963;42.658;23.298;2023-01-15T13:22:09;59030.50;;;6.95;100.00
7836;BME280;3963;42.658;23.298;2023-01-15T13:25:17;59055.72;;;6.95;100.00
7836;BME280;3963;42.658;23.298;2023-01-15T13:28:00;59042.84;;;6.95;100.00
7836;BME280;3963;42.658;23.298;2023-01-15T13:30:43;59011.78;;;6.90;100.00
7836;BME280;3963;42.658;23.298;2023-01-15T13:33:25;59042.31;;;6.94;100.00
7836;BME280;3963;42.658;23.298;2023-01-15T13:35:59;59019.50;;;6.75;100.00